sensor_id;sensor_type;location;lat;lon;timestamp;temperature;humidity
4655;DHT22;2340;47.814;9.798;2023-06-19T00:01:48;21.10;99.90
4655;DHT22;2340;47.814;9.798;2023-06-19T00:04:13;21.10;99.90
4655;DHT22;2340;47.814;9.798;2023-06-19T00:06:39;21.10;99.90
4655;DHT22;2340;47.814;9.798;2023-06-19T00:09:06;21.10;99.90
4655;DHT22;2340;47.814;9.798;2023-06-19T00:11:32;21.10;99.90
4655;DHT22;2340;47.814;9.798;2023-06-19T00:13:57;21.20;99.90
4655;DHT22;2340;47.814;9.798;2023-06-19T00:16:23;21.10;99.90
4655;DHT22;2340;47.814;9.798;2023-06-19T00:18:50;21.10;99.90
4655;DHT22;2340;47.814;9.798;2023-06-19T00:21:17;21.10;99.90
4655;DHT22;2340;47.814;9.798;2023-06-19T00:23:42;21.10;99.90
4655;DHT22;2340;47.814;9.798;2023-06-19T00:26:08;21.10;99.90
4655;DHT22;2340;47.814;9.798;2023-06-19T00:28:34;21.10;99.90
4655;DHT22;2340;47.814;9.798;2023-06-19T00:30:59;21.20;99.90
4655;DHT22;2340;47.814;9.798;2023-06-19T00:33:25;21.20;99.90
4655;DHT22;2340;47.814;9.798;2023-06-19T00:35:51;21.20;99.90
4655;DHT22;2340;47.814;9.798;2023-06-19T00:38:17;21.20;99.90
4655;DHT22;2340;47.814;9.798;2023-06-19T00:40:42;21.20;99.90
4655;DHT22;2340;47.814;9.798;2023-06-19T00:43:08;21.20;99.90
4655;DHT22;2340;47.814;9.798;2023-06-19T00:45:34;21.10;99.90
4655;DHT22;2340;47.814;9.798;2023-06-19T00:48:00;21.10;99.90
4655;DHT22;2340;47.814;9.798;2023-06-19T00:50:28;21.10;99.90
4655;DHT22;2340;47.814;9.798;2023-06-19T00:52:55;21.10;99.90
4655;DHT22;2340;47.814;9.798;2023-06-19T00:55:21;21.10;99.90
4655;DHT22;2340;47.814;9.798;2023-06-19T00:57:47;21.00;99.90
4655;DHT22;2340;47.814;9.798;2023-06-19T01:00:13;21.00;99.90
4655;DHT22;2340;47.814;9.798;2023-06-19T01:02:39;20.90;99.90
4655;DHT22;2340;47.814;9.798;2023-06-19T01:05:05;20.90;99.90
4655;DHT22;2340;47.814;9.798;2023-06-19T01:10:08;20.80;99.90
4655;DHT22;2340;47.814;9.798;2023-06-19T01:12:38;20.80;99.90
4655;DHT22;2340;47.814;9.798;2023-06-19T01:15:07;20.70;99.90
4655;DHT22;2340;47.814;9.798;2023-06-19T01:17:33;20.70;99.90
4655;DHT22;2340;47.814;9.798;2023-06-19T01:20:01;20.60;99.90
4655;DHT22;2340;47.814;9.798;2023-06-19T01:22:32;20.60;99.90
4655;DHT22;2340;47.814;9.798;2023-06-19T01:24:58;20.50;99.90
4655;DHT22;2340;47.814;9.798;2023-06-19T01:27:24;20.50;99.90
4655;DHT22;2340;47.814;9.798;2023-06-19T01:30:00;20.50;99.90
4655;DHT22;2340;47.814;9.798;2023-06-19T01:35:01;20.40;99.90
4655;DHT22;2340;47.814;9.798;2023-06-19T01:37:28;20.40;99.90
4655;DHT22;2340;47.814;9.798;2023-06-19T01:39:57;20.30;99.90
4655;DHT22;2340;47.814;9.798;2023-06-19T01:42:25;20.30;99.90
4655;DHT22;2340;47.814;9.798;2023-06-19T01:44:51;20.30;99.90
4655;DHT22;2340;47.814;9.798;2023-06-19T01:47:16;20.20;99.90
4655;DHT22;2340;47.814;9.798;2023-06-19T01:49:46;20.20;99.90
4655;DHT22;2340;47.814;9.798;2023-06-19T01:52:12;20.20;99.90
4655;DHT22;2340;47.814;9.798;2023-06-19T01:54:38;20.20;99.90
4655;DHT22;2340;47.814;9.798;2023-06-19T01:57:03;20.20;99.90
4655;DHT22;2340;47.814;9.798;2023-06-19T01:59:29;20.20;99.90
4655;DHT22;2340;47.814;9.798;2023-06-19T02:01:54;20.10;99.90
4655;DHT22;2340;47.814;9.798;2023-06-19T02:04:20;20.10;99.90
4655;DHT22;2340;47.814;9.798;2023-06-19T02:06:46;20.10;99.90
4655;DHT22;2340;47.814;9.798;2023-06-19T02:09:11;20.00;99.90
4655;DHT22;2340;47.814;9.798;2023-06-19T02:11:37;20.10;99.90
4655;DHT22;2340;47.814;9.798;2023-06-19T02:14:02;20.10;99.90
4655;DHT22;2340;47.814;9.798;2023-06-19T02:16:28;20.00;99.90
4655;DHT22;2340;47.814;9.798;2023-06-19T02:18:53;20.10;99.90
4655;DHT22;2340;47.814;9.798;2023-06-19T02:21:19;20.10;99.90
4655;DHT22;2340;47.814;9.798;2023-06-19T02:23:45;20.00;99.90
4655;DHT22;2340;47.814;9.798;2023-06-19T02:26:10;20.00;99.90
4655;DHT22;2340;47.814;9.798;2023-06-19T02:28:36;20.10;99.90
4655;DHT22;2340;47.814;9.798;2023-06-19T02:31:01;20.00;99.90
4655;DHT22;2340;47.814;9.798;2023-06-19T02:33:27;20.00;99.90
4655;DHT22;2340;47.814;9.798;2023-06-19T02:35:53;20.00;99.90
4655;DHT22;2340;47.814;9.798;2023-06-19T02:38:24;20.00;99.90
4655;DHT22;2340;47.814;9.798;2023-06-19T02:40:50;19.90;99.90
4655;DHT22;2340;47.814;9.798;2023-06-19T02:43:16;19.90;99.90
4655;DHT22;2340;47.814;9.798;2023-06-19T02:45:41;19.90;99.90
4655;DHT22;2340;47.814;9.798;2023-06-19T02:48:09;19.90;99.90
4655;DHT22;2340;47.814;9.798;2023-06-19T02:50:35;19.80;99.90
4655;DHT22;2340;47.814;9.798;2023-06-19T02:53:01;19.80;99.90
4655;DHT22;2340;47.814;9.798;2023-06-19T02:55:26;19.80;99.90
4655;DHT22;2340;47.814;9.798;2023-06-19T02:57:52;19.80;99.90
4655;DHT22;2340;47.814;9.798;2023-06-19T03:00:19;19.80;99.90
4655;DHT22;2340;47.814;9.798;2023-06-19T03:02:45;19.80;99.90
4655;DHT22;2340;47.814;9.798;2023-06-19T03:05:13;19.80;99.90
4655;DHT22;2340;47.814;9.798;2023-06-19T03:07:42;19.90;99.90
4655;DHT22;2340;47.814;9.798;2023-06-19T03:10:07;19.90;99.90
4655;DHT22;2340;47.814;9.798;2023-06-19T03:12:33;19.90;99.90
4655;DHT22;2340;47.814;9.798;2023-06-19T03:15:00;19.90;99.90
4655;DHT22;2340;47.814;9.798;2023-06-19T03:17:25;19.90;99.90
4655;DHT22;2340;47.814;9.798;2023-06-19T03:19:51;20.00;99.90
4655;DHT22;2340;47.814;9.798;2023-06-19T03:22:19;20.00;99.90
4655;DHT22;2340;47.814;9.798;2023-06-19T03:24:44;20.00;99.90
4655;DHT22;2340;47.814;9.798;2023-06-19T03:27:10;20.10;99.90
4655;DHT22;2340;47.814;9.798;2023-06-19T03:29:35;20.20;99.90
4655;DHT22;2340;47.814;9.798;2023-06-19T03:32:01;20.20;99.90
4655;DHT22;2340;47.814;9.798;2023-06-19T03:34:27;20.30;99.90
4655;DHT22;2340;47.814;9.798;2023-06-19T03:36:52;20.30;99.90
4655;DHT22;2340;47.814;9.798;2023-06-19T03:39:18;20.30;99.90
4655;DHT22;2340;47.814;9.798;2023-06-19T03:41:44;20.30;99.90
4655;DHT22;2340;47.814;9.798;2023-06-19T03:44:09;20.30;99.90
4655;DHT22;2340;47.814;9.798;2023-06-19T03:46:35;20.30;99.90
4655;DHT22;2340;47.814;9.798;2023-06-19T03:49:00;20.30;99.90
4655;DHT22;2340;47.814;9.798;2023-06-19T03:51:28;20.30;99.90
4655;DHT22;2340;47.814;9.798;2023-06-19T03:53:54;20.30;99.90
4655;DHT22;2340;47.814;9.798;2023-06-19T03:56:20;20.30;99.90
4655;DHT22;2340;47.814;9.798;2023-06-19T03:58:45;20.30;99.90
4655;DHT22;2340;47.814;9.798;2023-06-19T04:01:11;20.30;99.90
4655;DHT22;2340;47.814;9.798;2023-06-19T04:03:36;20.30;99.90
4655;DHT22;2340;47.814;9.798;2023-06-19T04:06:02;20.30;99.90
4655;DHT22;2340;47.814;9.798;2023-06-19T04:08:27;20.20;99.90
4655;DHT22;2340;47.814;9.798;2023-06-19T04:10:53;20.20;99.90
4655;DHT22;2340;47.814;9.798;2023-06-19T04:13:19;20.20;99.90
4655;DHT22;2340;47.814;9.798;2023-06-19T04:15:45;20.20;99.90
4655;DHT22;2340;47.814;9.798;2023-06-19T04:18:10;20.10;99.90
4655;DHT22;2340;47.814;9.798;2023-06-19T04:20:36;20.10;99.90
4655;DHT22;2340;47.814;9.798;2023-06-19T04:23:02;20.00;99.90
4655;DHT22;2340;47.814;9.798;2023-06-19T04:25:27;20.00;99.90
4655;DHT22;2340;47.814;9.798;2023-06-19T04:27:53;20.00;99.90
4655;DHT22;2340;47.814;9.798;2023-06-19T04:30:18;19.90;99.90
4655;DHT22;2340;47.814;9.798;2023-06-19T04:32:46;19.90;99.90
4655;DHT22;2340;47.814;9.798;2023-06-19T04:35:12;19.90;99.90
4655;DHT22;2340;47.814;9.798;2023-06-19T04:37:38;19.90;99.90
4655;DHT22;2340;47.814;9.798;2023-06-19T04:40:05;19.90;99.90
4655;DHT22;2340;47.814;9.798;2023-06-19T04:42:33;20.00;99.90
4655;DHT22;2340;47.814;9.798;2023-06-19T04:44:58;19.90;99.90
4655;DHT22;2340;47.814;9.798;2023-06-19T04:47:25;19.80;99.90
4655;DHT22;2340;47.814;9.798;2023-06-19T04:49:51;19.70;99.90
4655;DHT22;2340;47.814;9.798;2023-06-19T04:52:16;19.80;99.90
4655;DHT22;2340;47.814;9.798;2023-06-19T04:54:44;19.80;99.90
4655;DHT22;2340;47.814;9.798;2023-06-19T04:57:09;19.90;99.90
4655;DHT22;2340;47.814;9.798;2023-06-19T04:59:35;19.90;99.90
4655;DHT22;2340;47.814;9.798;2023-06-19T05:02:02;20.00;99.90
4655;DHT22;2340;47.814;9.798;2023-06-19T05:04:27;20.00;99.90
4655;DHT22;2340;47.814;9.798;2023-06-19T05:06:55;20.10;99.90
4655;DHT22;2340;47.814;9.798;2023-06-19T05:09:21;20.20;99.90
4655;DHT22;2340;47.814;9.798;2023-06-19T05:11:46;20.10;99.90
4655;DHT22;2340;47.814;9.798;2023-06-19T05:14:12;20.20;99.90
4655;DHT22;2340;47.814;9.798;2023-06-19T05:16:39;20.10;99.90
4655;DHT22;2340;47.814;9.798;2023-06-19T05:19:05;20.10;99.90
4655;DHT22;2340;47.814;9.798;2023-06-19T05:21:31;20.10;99.90
4655;DHT22;2340;47.814;9.798;2023-06-19T05:23:56;20.10;99.90
4655;DHT22;2340;47.814;9.798;2023-06-19T05:26:22;20.00;99.90
4655;DHT22;2340;47.814;9.798;2023-06-19T05:28:48;20.00;99.90
4655;DHT22;2340;47.814;9.798;2023-06-19T05:31:14;20.10;99.90
4655;DHT22;2340;47.814;9.798;2023-06-19T05:33:40;20.10;99.90
4655;DHT22;2340;47.814;9.798;2023-06-19T05:36:06;20.10;99.90
4655;DHT22;2340;47.814;9.798;2023-06-19T05:38:32;20.00;99.90
4655;DHT22;2340;47.814;9.798;2023-06-19T05:40:58;20.00;99.90
4655;DHT22;2340;47.814;9.798;2023-06-19T05:43:25;19.90;99.90
4655;DHT22;2340;47.814;9.798;2023-06-19T05:45:51;19.90;99.90
4655;DHT22;2340;47.814;9.798;2023-06-19T05:48:17;19.90;99.90
4655;DHT22;2340;47.814;9.798;2023-06-19T05:50:42;19.90;99.90
4655;DHT22;2340;47.814;9.798;2023-06-19T05:53:08;19.80;99.90
4655;DHT22;2340;47.814;9.798;2023-06-19T05:55:34;19.70;99.90
4655;DHT22;2340;47.814;9.798;2023-06-19T05:57:59;19.70;99.90
4655;DHT22;2340;47.814;9.798;2023-06-19T06:00:26;19.70;99.90
4655;DHT22;2340;47.814;9.798;2023-06-19T06:02:51;19.70;99.90
4655;DHT22;2340;47.814;9.798;2023-06-19T06:05:18;19.80;99.90
4655;DHT22;2340;47.814;9.798;2023-06-19T06:07:46;19.80;99.90
4655;DHT22;2340;47.814;9.798;2023-06-19T06:10:11;19.90;99.90
4655;DHT22;2340;47.814;9.798;2023-06-19T06:12:37;19.80;99.90
4655;DHT22;2340;47.814;9.798;2023-06-19T06:15:04;19.80;99.90
4655;DHT22;2340;47.814;9.798;2023-06-19T06:17:31;19.80;99.90
4655;DHT22;2340;47.814;9.798;2023-06-19T06:19:56;19.80;99.90
4655;DHT22;2340;47.814;9.798;2023-06-19T06:22:22;19.80;99.90
4655;DHT22;2340;47.814;9.798;2023-06-19T06:24:47;19.80;99.90
4655;DHT22;2340;47.814;9.798;2023-06-19T06:27:13;19.70;99.90
4655;DHT22;2340;47.814;9.798;2023-06-19T06:29:39;19.70;99.90
4655;DHT22;2340;47.814;9.798;2023-06-19T06:32:06;19.70;99.90
4655;DHT22;2340;47.814;9.798;2023-06-19T06:34:35;19.80;99.90
4655;DHT22;2340;47.814;9.798;2023-06-19T06:37:01;19.70;99.90
4655;DHT22;2340;47.814;9.798;2023-06-19T06:39:27;19.80;99.90
4655;DHT22;2340;47.814;9.798;2023-06-19T06:41:53;19.80;99.90
4655;DHT22;2340;47.814;9.798;2023-06-19T06:44:19;19.90;99.90
4655;DHT22;2340;47.814;9.798;2023-06-19T06:46:44;19.90;99.90
4655;DHT22;2340;47.814;9.798;2023-06-19T06:49:11;19.80;99.90
4655;DHT22;2340;47.814;9.798;2023-06-19T06:51:37;19.80;99.90
4655;DHT22;2340;47.814;9.798;2023-06-19T06:54:02;19.80;99.90
4655;DHT22;2340;47.814;9.798;2023-06-19T06:56:28;19.80;99.90
4655;DHT22;2340;47.814;9.798;2023-06-19T06:58:54;19.80;99.90
4655;DHT22;2340;47.814;9.798;2023-06-19T07:01:20;19.80;99.90
4655;DHT22;2340;47.814;9.798;2023-06-19T07:03:45;19.80;99.90
4655;DHT22;2340;47.814;9.798;2023-06-19T07:06:11;19.70;99.90
4655;DHT22;2340;47.814;9.798;2023-06-19T07:08:36;19.80;99.90
4655;DHT22;2340;47.814;9.798;2023-06-19T07:11:02;19.80;99.90
4655;DHT22;2340;47.814;9.798;2023-06-19T07:13:28;19.90;99.90
4655;DHT22;2340;47.814;9.798;2023-06-19T07:15:54;19.90;99.90
4655;DHT22;2340;47.814;9.798;2023-06-19T07:18:19;20.00;99.90
4655;DHT22;2340;47.814;9.798;2023-06-19T07:20:45;20.00;99.90
4655;DHT22;2340;47.814;9.798;2023-06-19T07:23:11;20.10;99.90
4655;DHT22;2340;47.814;9.798;2023-06-19T07:25:36;20.10;99.90
4655;DHT22;2340;47.814;9.798;2023-06-19T07:28:02;20.00;99.90
4655;DHT22;2340;47.814;9.798;2023-06-19T07:30:30;20.00;99.90
4655;DHT22;2340;47.814;9.798;2023-06-19T07:32:56;20.00;99.90
4655;DHT22;2340;47.814;9.798;2023-06-19T07:35:21;20.00;99.90
4655;DHT22;2340;47.814;9.798;2023-06-19T07:37:47;20.00;99.90
4655;DHT22;2340;47.814;9.798;2023-06-19T07:40:12;20.00;99.90
4655;DHT22;2340;47.814;9.798;2023-06-19T07:42:38;20.00;99.90
4655;DHT22;2340;47.814;9.798;2023-06-19T07:45:04;19.90;99.90
4655;DHT22;2340;47.814;9.798;2023-06-19T07:47:30;19.90;99.90
4655;DHT22;2340;47.814;9.798;2023-06-19T07:49:56;19.90;99.90
4655;DHT22;2340;47.814;9.798;2023-06-19T07:52:21;19.90;99.90
4655;DHT22;2340;47.814;9.798;2023-06-19T07:54:55;20.00;99.90
4655;DHT22;2340;47.814;9.798;2023-06-19T07:57:21;20.00;99.90
4655;DHT22;2340;47.814;9.798;2023-06-19T07:59:48;20.10;99.90
4655;DHT22;2340;47.814;9.798;2023-06-19T08:02:14;20.20;99.90
4655;DHT22;2340;47.814;9.798;2023-06-19T08:04:40;20.20;99.90
4655;DHT22;2340;47.814;9.798;2023-06-19T08:07:06;20.30;99.90
4655;DHT22;2340;47.814;9.798;2023-06-19T08:09:32;20.40;99.90
4655;DHT22;2340;47.814;9.798;2023-06-19T08:11:57;20.40;99.90
4655;DHT22;2340;47.814;9.798;2023-06-19T08:14:23;20.40;99.90
4655;DHT22;2340;47.814;9.798;2023-06-19T08:16:49;20.50;99.90
4655;DHT22;2340;47.814;9.798;2023-06-19T08:19:14;20.50;99.90
4655;DHT22;2340;47.814;9.798;2023-06-19T08:21:40;20.60;99.90
4655;DHT22;2340;47.814;9.798;2023-06-19T08:24:06;20.70;99.90
4655;DHT22;2340;47.814;9.798;2023-06-19T08:26:32;20.80;99.90
4655;DHT22;2340;47.814;9.798;2023-06-19T08:28:57;20.80;99.90
4655;DHT22;2340;47.814;9.798;2023-06-19T08:31:23;20.90;99.90
4655;DHT22;2340;47.814;9.798;2023-06-19T08:33:53;20.90;99.90
4655;DHT22;2340;47.814;9.798;2023-06-19T08:36:19;20.90;99.90
4655;DHT22;2340;47.814;9.798;2023-06-19T08:38:44;21.00;99.90
4655;DHT22;2340;47.814;9.798;2023-06-19T08:41:12;21.00;99.90
4655;DHT22;2340;47.814;9.798;2023-06-19T08:43:38;21.00;99.90
4655;DHT22;2340;47.814;9.798;2023-06-19T08:46:10;21.10;99.90
4655;DHT22;2340;47.814;9.798;2023-06-19T08:48:36;21.10;99.90
4655;DHT22;2340;47.814;9.798;2023-06-19T08:51:05;21.10;99.90
4655;DHT22;2340;47.814;9.798;2023-06-19T08:53:36;21.10;99.90
4655;DHT22;2340;47.814;9.798;2023-06-19T08:56:03;21.10;99.90
4655;DHT22;2340;47.814;9.798;2023-06-19T08:58:29;21.10;99.90
4655;DHT22;2340;47.814;9.798;2023-06-19T09:00:56;21.20;99.90
4655;DHT22;2340;47.814;9.798;2023-06-19T09:03:23;21.20;99.90
4655;DHT22;2340;47.814;9.798;2023-06-19T09:05:48;21.40;99.90
4655;DHT22;2340;47.814;9.798;2023-06-19T09:08:21;21.60;99.90
4655;DHT22;2340;47.814;9.798;2023-06-19T09:11:04;21.70;99.90
4655;DHT22;2340;47.814;9.798;2023-06-19T09:13:31;21.70;99.90
4655;DHT22;2340;47.814;9.798;2023-06-19T09:16:05;21.70;99.90
4655;DHT22;2340;47.814;9.798;2023-06-19T09:18:41;21.80;99.90
4655;DHT22;2340;47.814;9.798;2023-06-19T09:21:15;21.80;99.90
4655;DHT22;2340;47.814;9.798;2023-06-19T09:23:40;22.00;99.90
4655;DHT22;2340;47.814;9.798;2023-06-19T09:26:06;22.00;99.90
4655;DHT22;2340;47.814;9.798;2023-06-19T09:28:31;22.10;99.90
4655;DHT22;2340;47.814;9.798;2023-06-19T09:31:02;22.20;99.90
4655;DHT22;2340;47.814;9.798;2023-06-19T09:33:29;22.30;99.90
4655;DHT22;2340;47.814;9.798;2023-06-19T09:35:57;22.40;99.90
4655;DHT22;2340;47.814;9.798;2023-06-19T09:38:28;22.40;99.90
4655;DHT22;2340;47.814;9.798;2023-06-19T09:40:55;22.50;99.90
4655;DHT22;2340;47.814;9.798;2023-06-19T09:43:27;22.60;99.90
4655;DHT22;2340;47.814;9.798;2023-06-19T09:45:56;22.70;99.90
4655;DHT22;2340;47.814;9.798;2023-06-19T09:48:34;22.80;99.90
4655;DHT22;2340;47.814;9.798;2023-06-19T09:51:23;22.90;99.90
4655;DHT22;2340;47.814;9.798;2023-06-19T09:53:51;23.00;99.90
4655;DHT22;2340;47.814;9.798;2023-06-19T09:56:17;23.00;99.90
4655;DHT22;2340;47.814;9.798;2023-06-19T09:58:48;23.10;99.90
4655;DHT22;2340;47.814;9.798;2023-06-19T10:01:15;23.20;99.90
4655;DHT22;2340;47.814;9.798;2023-06-19T10:03:44;23.40;99.90
4655;DHT22;2340;47.814;9.798;2023-06-19T10:06:13;23.50;99.90
4655;DHT22;2340;47.814;9.798;2023-06-19T10:08:42;23.60;99.90
4655;DHT22;2340;47.814;9.798;2023-06-19T10:11:09;23.70;99.90
4655;DHT22;2340;47.814;9.798;2023-06-19T10:13:37;23.80;99.90
4655;DHT22;2340;47.814;9.798;2023-06-19T10:16:04;23.90;99.90
4655;DHT22;2340;47.814;9.798;2023-06-19T10:18:31;24.00;99.90
4655;DHT22;2340;47.814;9.798;2023-06-19T10:20:57;24.20;99.90
4655;DHT22;2340;47.814;9.798;2023-06-19T10:23:26;24.30;99.90
4655;DHT22;2340;47.814;9.798;2023-06-19T10:28:31;24.50;99.90
4655;DHT22;2340;47.814;9.798;2023-06-19T10:31:07;24.60;99.90
4655;DHT22;2340;47.814;9.798;2023-06-19T10:33:37;24.70;99.90
4655;DHT22;2340;47.814;9.798;2023-06-19T10:36:22;24.80;99.90
4655;DHT22;2340;47.814;9.798;2023-06-19T10:38:51;25.00;99.90
4655;DHT22;2340;47.814;9.798;2023-06-19T10:41:18;25.30;99.90
4655;DHT22;2340;47.814;9.798;2023-06-19T10:43:59;25.40;99.90
4655;DHT22;2340;47.814;9.798;2023-06-19T10:46:30;25.50;99.90
4655;DHT22;2340;47.814;9.798;2023-06-19T10:48:56;25.70;99.90
4655;DHT22;2340;47.814;9.798;2023-06-19T10:51:26;25.80;99.90
4655;DHT22;2340;47.814;9.798;2023-06-19T10:53:54;25.90;99.90
4655;DHT22;2340;47.814;9.798;2023-06-19T10:56:21;26.00;99.90
4655;DHT22;2340;47.814;9.798;2023-06-19T10:58:47;26.10;99.90
4655;DHT22;2340;47.814;9.798;2023-06-19T11:01:12;26.30;99.90
4655;DHT22;2340;47.814;9.798;2023-06-19T11:03:38;26.40;99.90
4655;DHT22;2340;47.814;9.798;2023-06-19T11:06:04;26.50;99.90
4655;DHT22;2340;47.814;9.798;2023-06-19T11:08:30;26.50;99.90
4655;DHT22;2340;47.814;9.798;2023-06-19T11:10:55;26.50;99.90
4655;DHT22;2340;47.814;9.798;2023-06-19T11:13:21;26.50;99.90
4655;DHT22;2340;47.814;9.798;2023-06-19T11:15:48;26.50;99.90
4655;DHT22;2340;47.814;9.798;2023-06-19T11:18:16;26.70;99.90
4655;DHT22;2340;47.814;9.798;2023-06-19T11:20:52;26.80;99.90
4655;DHT22;2340;47.814;9.798;2023-06-19T11:23:26;27.10;99.90
4655;DHT22;2340;47.814;9.798;2023-06-19T11:25:52;27.30;99.90
4655;DHT22;2340;47.814;9.798;2023-06-19T11:28:18;27.40;99.90
4655;DHT22;2340;47.814;9.798;2023-06-19T11:30:48;27.50;99.90
4655;DHT22;2340;47.814;9.798;2023-06-19T11:33:21;27.40;99.90
4655;DHT22;2340;47.814;9.798;2023-06-19T11:35:51;27.50;99.90
4655;DHT22;2340;47.814;9.798;2023-06-19T11:38:20;27.50;99.90
4655;DHT22;2340;47.814;9.798;2023-06-19T11:40:47;27.50;99.90
4655;DHT22;2340;47.814;9.798;2023-06-19T11:43:26;27.40;99.90
4655;DHT22;2340;47.814;9.798;2023-06-19T11:45:53;27.40;99.90
4655;DHT22;2340;47.814;9.798;2023-06-19T11:48:27;27.30;99.90
4655;DHT22;2340;47.814;9.798;2023-06-19T11:50:53;27.40;99.90
4655;DHT22;2340;47.814;9.798;2023-06-19T11:53:23;27.40;99.90
4655;DHT22;2340;47.814;9.798;2023-06-19T11:55:50;27.30;99.90
4655;DHT22;2340;47.814;9.798;2023-06-19T11:58:16;27.40;99.90
4655;DHT22;2340;47.814;9.798;2023-06-19T12:00:42;27.40;99.90
4655;DHT22;2340;47.814;9.798;2023-06-19T12:03:08;27.60;99.90
4655;DHT22;2340;47.814;9.798;2023-06-19T12:05:35;27.90;99.90
4655;DHT22;2340;47.814;9.798;2023-06-19T12:08:01;28.50;99.90
4655;DHT22;2340;47.814;9.798;2023-06-19T12:10:33;29.20;99.90
4655;DHT22;2340;47.814;9.798;2023-06-19T12:12:59;29.80;99.40
4655;DHT22;2340;47.814;9.798;2023-06-19T12:15:25;30.40;99.10
4655;DHT22;2340;47.814;9.798;2023-06-19T12:17:51;30.70;95.90
4655;DHT22;2340;47.814;9.798;2023-06-19T12:20:17;31.20;96.00
4655;DHT22;2340;47.814;9.798;2023-06-19T12:22:43;31.50;94.20
4655;DHT22;2340;47.814;9.798;2023-06-19T12:25:09;31.70;93.40
4655;DHT22;2340;47.814;9.798;2023-06-19T12:27:34;31.90;93.10
4655;DHT22;2340;47.814;9.798;2023-06-19T12:30:00;32.10;92.10
4655;DHT22;2340;47.814;9.798;2023-06-19T12:32:26;32.10;92.70
4655;DHT22;2340;47.814;9.798;2023-06-19T12:34:52;32.30;93.70
4655;DHT22;2340;47.814;9.798;2023-06-19T12:37:19;32.50;93.40
4655;DHT22;2340;47.814;9.798;2023-06-19T12:39:46;32.60;91.80
4655;DHT22;2340;47.814;9.798;2023-06-19T12:42:12;32.80;92.70
4655;DHT22;2340;47.814;9.798;2023-06-19T12:44:41;32.80;90.70
4655;DHT22;2340;47.814;9.798;2023-06-19T12:47:07;32.90;90.70
4655;DHT22;2340;47.814;9.798;2023-06-19T12:49:33;32.80;90.90
4655;DHT22;2340;47.814;9.798;2023-06-19T12:51:59;33.00;91.40
4655;DHT22;2340;47.814;9.798;2023-06-19T12:54:25;33.10;90.30
4655;DHT22;2340;47.814;9.798;2023-06-19T12:56:51;33.20;90.80
4655;DHT22;2340;47.814;9.798;2023-06-19T12:59:16;33.10;90.40
4655;DHT22;2340;47.814;9.798;2023-06-19T13:01:42;33.20;90.90
4655;DHT22;2340;47.814;9.798;2023-06-19T13:04:08;33.10;90.10
4655;DHT22;2340;47.814;9.798;2023-06-19T13:06:36;33.10;90.50
4655;DHT22;2340;47.814;9.798;2023-06-19T13:09:01;33.10;88.80
4655;DHT22;2340;47.814;9.798;2023-06-19T13:11:27;33.00;90.00
4655;DHT22;2340;47.814;9.798;2023-06-19T13:13:53;33.00;87.30
4655;DHT22;2340;47.814;9.798;2023-06-19T13:16:19;33.00;87.70
4655;DHT22;2340;47.814;9.798;2023-06-19T13:18:45;33.10;90.00
4655;DHT22;2340;47.814;9.798;2023-06-19T13:21:11;33.20;88.00
4655;DHT22;2340;47.814;9.798;2023-06-19T13:23:37;33.20;86.50
4655;DHT22;2340;47.814;9.798;2023-06-19T13:26:03;33.40;88.40
4655;DHT22;2340;47.814;9.798;2023-06-19T13:28:28;33.30;84.60
4655;DHT22;2340;47.814;9.798;2023-06-19T13:30:54;33.50;86.50
4655;DHT22;2340;47.814;9.798;2023-06-19T13:33:19;33.60;86.30
4655;DHT22;2340;47.814;9.798;2023-06-19T13:35:45;33.60;87.20
4655;DHT22;2340;47.814;9.798;2023-06-19T13:38:11;33.70;84.80
4655;DHT22;2340;47.814;9.798;2023-06-19T13:40:37;33.90;86.00
4655;DHT22;2340;47.814;9.798;2023-06-19T13:43:02;33.90;82.80
4655;DHT22;2340;47.814;9.798;2023-06-19T13:45:29;33.80;84.10
4655;DHT22;2340;47.814;9.798;2023-06-19T13:47:56;34.00;84.20
4655;DHT22;2340;47.814;9.798;2023-06-19T13:50:23;34.00;82.80
4655;DHT22;2340;47.814;9.798;2023-06-19T13:52:49;34.10;83.10
4655;DHT22;2340;47.814;9.798;2023-06-19T13:55:15;34.20;84.70
4655;DHT22;2340;47.814;9.798;2023-06-19T13:57:41;34.10;82.90
4655;DHT22;2340;47.814;9.798;2023-06-19T14:00:09;34.10;84.00
4655;DHT22;2340;47.814;9.798;2023-06-19T14:02:38;33.90;83.50
4655;DHT22;2340;47.814;9.798;2023-06-19T14:05:05;33.80;83.40
4655;DHT22;2340;47.814;9.798;2023-06-19T14:07:32;34.10;84.50
4655;DHT22;2340;47.814;9.798;2023-06-19T14:09:58;34.20;82.50
4655;DHT22;2340;47.814;9.798;2023-06-19T14:12:23;34.20;82.90
4655;DHT22;2340;47.814;9.798;2023-06-19T14:14:49;34.40;83.60
4655;DHT22;2340;47.814;9.798;2023-06-19T14:17:14;34.40;81.90
4655;DHT22;2340;47.814;9.798;2023-06-19T14:19:40;34.30;81.90
4655;DHT22;2340;47.814;9.798;2023-06-19T14:22:05;34.10;80.70
4655;DHT22;2340;47.814;9.798;2023-06-19T14:24:31;33.90;82.50
4655;DHT22;2340;47.814;9.798;2023-06-19T14:26:57;33.90;83.70
4655;DHT22;2340;47.814;9.798;2023-06-19T14:29:22;33.80;83.30
4655;DHT22;2340;47.814;9.798;2023-06-19T14:31:51;33.90;83.40
4655;DHT22;2340;47.814;9.798;2023-06-19T14:34:16;33.80;81.10
4655;DHT22;2340;47.814;9.798;2023-06-19T14:36:42;33.90;84.00
4655;DHT22;2340;47.814;9.798;2023-06-19T14:39:08;33.90;80.30
4655;DHT22;2340;47.814;9.798;2023-06-19T14:41:33;33.70;82.20
4655;DHT22;2340;47.814;9.798;2023-06-19T14:43:59;33.60;80.80
4655;DHT22;2340;47.814;9.798;2023-06-19T14:46:24;33.40;80.90
4655;DHT22;2340;47.814;9.798;2023-06-19T14:48:51;33.40;81.00
4655;DHT22;2340;47.814;9.798;2023-06-19T14:51:16;33.40;78.40
4655;DHT22;2340;47.814;9.798;2023-06-19T14:53:42;33.40;80.50
4655;DHT22;2340;47.814;9.798;2023-06-19T14:56:07;33.50;80.50
4655;DHT22;2340;47.814;9.798;2023-06-19T14:58:33;33.40;81.70
4655;DHT22;2340;47.814;9.798;2023-06-19T15:00:58;33.20;80.90
4655;DHT22;2340;47.814;9.798;2023-06-19T15:03:24;33.00;81.20
4655;DHT22;2340;47.814;9.798;2023-06-19T15:05:50;32.80;80.60
4655;DHT22;2340;47.814;9.798;2023-06-19T15:08:15;32.80;80.70
4655;DHT22;2340;47.814;9.798;2023-06-19T15:10:46;32.80;83.00
4655;DHT22;2340;47.814;9.798;2023-06-19T15:13:12;33.00;82.70
4655;DHT22;2340;47.814;9.798;2023-06-19T15:15:37;33.20;82.20
4655;DHT22;2340;47.814;9.798;2023-06-19T15:18:03;33.40;83.40
4655;DHT22;2340;47.814;9.798;2023-06-19T15:20:29;33.60;83.20
4655;DHT22;2340;47.814;9.798;2023-06-19T15:22:54;33.60;82.40
4655;DHT22;2340;47.814;9.798;2023-06-19T15:25:20;33.50;83.40
4655;DHT22;2340;47.814;9.798;2023-06-19T15:27:45;33.50;84.10
4655;DHT22;2340;47.814;9.798;2023-06-19T15:30:11;33.50;83.10
4655;DHT22;2340;47.814;9.798;2023-06-19T15:32:37;33.30;83.70
4655;DHT22;2340;47.814;9.798;2023-06-19T15:35:03;32.90;84.30
4655;DHT22;2340;47.814;9.798;2023-06-19T15:37:29;32.50;85.20
4655;DHT22;2340;47.814;9.798;2023-06-19T15:39:54;32.10;85.20
4655;DHT22;2340;47.814;9.798;2023-06-19T15:42:21;32.00;85.60
4655;DHT22;2340;47.814;9.798;2023-06-19T15:44:47;31.80;86.10
4655;DHT22;2340;47.814;9.798;2023-06-19T15:47:12;31.90;85.60
4655;DHT22;2340;47.814;9.798;2023-06-19T15:49:38;32.00;86.10
4655;DHT22;2340;47.814;9.798;2023-06-19T15:52:05;32.10;86.90
4655;DHT22;2340;47.814;9.798;2023-06-19T15:54:30;32.20;87.20
4655;DHT22;2340;47.814;9.798;2023-06-19T15:56:56;32.10;86.00
4655;DHT22;2340;47.814;9.798;2023-06-19T15:59:21;32.00;86.40
4655;DHT22;2340;47.814;9.798;2023-06-19T16:01:47;32.00;86.00
4655;DHT22;2340;47.814;9.798;2023-06-19T16:04:13;32.00;85.80
4655;DHT22;2340;47.814;9.798;2023-06-19T16:06:38;31.70;85.80